createdAt,value
2023-05-07T00:00:09.618Z,101072.66
2023-05-07T00:02:55.540Z,101073.50
2023-05-07T00:05:41.049Z,101072.63
2023-05-07T00:08:26.748Z,101077.88
2023-05-07T00:11:12.559Z,101077.88
2023-05-07T00:13:58.408Z,101076.97
2023-05-07T00:16:44.039Z,101071.75
2023-05-07T00:19:29.360Z,101071.78
2023-05-07T00:22:14.707Z,101072.66
2023-05-07T00:25:00.244Z,101072.69
2023-05-07T00:27:45.868Z,101078.78
2023-05-07T00:30:31.244Z,101087.50
2023-05-07T00:33:16.547Z,101090.97
2023-05-07T00:36:03.052Z,101081.38
2023-05-07T00:38:48.446Z,101088.34
2023-05-07T00:41:34.032Z,101095.31
2023-05-07T00:44:19.673Z,101094.47
2023-05-07T00:47:06.366Z,101098.81
2023-05-07T00:49:52.803Z,101104.91
2023-05-07T00:52:38.731Z,101106.63
2023-05-07T00:55:25.463Z,101098.78
2023-05-07T00:58:10.865Z,101111.00
2023-05-07T01:00:56.360Z,101105.75
2023-05-07T01:03:41.695Z,101103.16
2023-05-07T01:06:30.352Z,101098.81
2023-05-07T01:09:15.815Z,101102.28
2023-05-07T01:12:01.427Z,101101.44
2023-05-07T01:14:47.528Z,101102.28
2023-05-07T01:17:44.028Z,101103.19
2023-05-07T01:20:37.372Z,101098.81
2023-05-07T01:23:23.886Z,101103.19
2023-05-07T01:26:09.180Z,101109.25
2023-05-07T01:28:55.286Z,101117.09
2023-05-07T01:31:43.350Z,101118.84
2023-05-07T01:34:32.588Z,101113.59
2023-05-07T01:37:18.465Z,101117.97
2023-05-07T01:40:04.448Z,101114.47
2023-05-07T01:42:50.177Z,101114.47
2023-05-07T01:45:36.182Z,101111.84
2023-05-07T01:48:22.348Z,101116.22
2023-05-07T01:51:09.862Z,101113.59
2023-05-07T01:53:55.587Z,101107.50
2023-05-07T01:56:41.338Z,101109.25
2023-05-07T01:59:27.320Z,101111.88
2023-05-07T02:02:13.148Z,101119.72
2023-05-07T02:05:02.845Z,101116.22
2023-05-07T02:07:48.201Z,101120.56
2023-05-07T02:10:37.151Z,101129.28
2023-05-07T02:13:25.783Z,101126.66
2023-05-07T02:16:11.984Z,101122.34
2023-05-07T02:18:59.256Z,101122.31
2023-05-07T02:21:45.275Z,101130.16
2023-05-07T02:24:30.611Z,101132.78
2023-05-07T02:27:16.222Z,101129.28
2023-05-07T02:30:04.234Z,101124.94
2023-05-07T02:32:49.810Z,101134.53
2023-05-07T02:35:35.520Z,101120.56
2023-05-07T02:38:21.079Z,101127.56
2023-05-07T02:41:06.334Z,101125.81
2023-05-07T02:43:51.642Z,101115.34
2023-05-07T02:46:37.544Z,101114.50
2023-05-07T02:49:27.978Z,101117.09
2023-05-07T02:52:13.945Z,101118.84
2023-05-07T02:54:59.262Z,101120.59
2023-05-07T02:57:44.412Z,101114.47
2023-05-07T03:00:30.238Z,101111.00
2023-05-07T03:03:36.617Z,101112.72
2023-05-07T03:06:22.348Z,101109.25
2023-05-07T03:09:08.338Z,101113.56
2023-05-07T03:11:54.479Z,101108.34
2023-05-07T03:14:39.804Z,101122.25
2023-05-07T03:17:25.103Z,101130.97
2023-05-07T03:20:12.125Z,101131.84
2023-05-07T03:22:58.549Z,101134.47
2023-05-07T03:25:43.918Z,101137.94
2023-05-07T03:28:29.492Z,101140.53
2023-05-07T03:31:19.735Z,101135.31
2023-05-07T03:34:05.530Z,101137.06
2023-05-07T03:36:51.256Z,101146.63
2023-05-07T03:39:38.473Z,101142.28
2023-05-07T03:42:24.700Z,101144.00
2023-05-07T03:45:11.630Z,101150.94
2023-05-07T03:48:01.067Z,101149.22
2023-05-07T03:50:47.520Z,101158.81
2023-05-07T03:53:33.302Z,101163.16
2023-05-07T03:56:19.853Z,101159.69
2023-05-07T03:59:05.933Z,101167.56
2023-05-07T04:01:51.408Z,101161.44
2023-05-07T04:04:39.806Z,101160.59
2023-05-07T04:07:25.639Z,101156.22
2023-05-07T04:10:11.350Z,101161.44
2023-05-07T04:12:59.962Z,101156.22
2023-05-07T04:15:49.909Z,101153.59
2023-05-07T04:18:37.421Z,101151.88
2023-05-07T04:21:24.223Z,101152.75
2023-05-07T04:24:12.047Z,101160.59
2023-05-07T04:26:57.607Z,101168.41
2023-05-07T04:29:44.218Z,101168.41
2023-05-07T04:32:32.863Z,101165.81
2023-05-07T04:35:18.587Z,101165.81
2023-05-07T04:38:04.773Z,101167.56
2023-05-07T04:40:50.866Z,101164.94
2023-05-07T04:43:41.274Z,101170.16
2023-05-07T04:46:26.810Z,101176.25
2023-05-07T04:49:15.150Z,101171.88
2023-05-07T04:52:00.784Z,101176.25
2023-05-07T04:54:46.355Z,101184.09
2023-05-07T04:57:32.275Z,101175.38
2023-05-07T05:00:17.669Z,101176.25
2023-05-07T05:03:04.874Z,101174.50
2023-05-07T05:05:53.248Z,101186.69
2023-05-07T05:08:41.000Z,101181.47
2023-05-07T05:11:28.594Z,101183.19
2023-05-07T05:14:14.044Z,101180.56
2023-05-07T05:17:00.154Z,101178.84
2023-05-07T05:19:45.515Z,101177.97
2023-05-07T05:22:32.543Z,101181.44
2023-05-07T05:25:19.487Z,101187.53
2023-05-07T05:28:05.835Z,101186.66
2023-05-07T05:30:53.310Z,101187.53
2023-05-07T05:33:39.200Z,101194.47
2023-05-07T05:36:25.092Z,101197.13
2023-05-07T05:39:14.085Z,101196.28
2023-05-07T05:41:59.537Z,101192.81
2023-05-07T05:44:46.650Z,101188.47
2023-05-07T05:47:32.462Z,101195.44
2023-05-07T05:50:18.574Z,101197.22
2023-05-07T05:53:04.271Z,101197.22
2023-05-07T05:55:50.474Z,101186.75
2023-05-07T05:58:36.369Z,101187.66
2023-05-07T06:01:25.361Z,101191.13
2023-05-07T06:04:13.064Z,101191.97
2023-05-07T06:06:59.018Z,101194.59
2023-05-07T06:09:45.394Z,101193.69
2023-05-07T06:12:31.786Z,101189.38
2023-05-07T06:15:17.575Z,101198.06
2023-05-07T06:18:04.454Z,101202.41
2023-05-07T06:20:50.356Z,101199.81
2023-05-07T06:23:43.429Z,101211.13
2023-05-07T06:26:29.597Z,101216.34
2023-05-07T06:29:15.065Z,101220.75
2023-05-07T06:32:12.742Z,101222.53
2023-05-07T06:35:01.204Z,101231.22
2023-05-07T06:37:46.855Z,101234.72
2023-05-07T06:40:37.285Z,101229.50
2023-05-07T06:43:23.106Z,101236.47
2023-05-07T06:46:32.039Z,101231.28
2023-05-07T06:49:17.480Z,101241.72
2023-05-07T06:52:03.204Z,101246.13
2023-05-07T06:54:48.955Z,101244.34
2023-05-07T06:57:36.373Z,101246.91
2023-05-07T07:00:22.518Z,101246.88
2023-05-07T07:03:12.762Z,101246.81
2023-05-07T07:05:59.282Z,101245.06
2023-05-07T07:08:45.459Z,101249.38
2023-05-07T07:11:34.146Z,101246.69
2023-05-07T07:14:19.823Z,101250.09
2023-05-07T07:17:09.179Z,101257.88
2023-05-07T07:19:54.649Z,101246.41
2023-05-07T07:22:40.548Z,101245.44
2023-05-07T07:25:26.531Z,101239.31
2023-05-07T07:28:12.436Z,101241.03
2023-05-07T07:30:57.972Z,101242.78
2023-05-07T07:33:43.534Z,101240.06
2023-05-07T07:36:38.965Z,101247.88
2023-05-07T07:39:35.789Z,101238.16
2023-05-07T07:42:22.212Z,101241.53
2023-05-07T07:45:08.388Z,101236.25
2023-05-07T07:47:58.141Z,101225.75
2023-05-07T07:50:45.604Z,101229.25
2023-05-07T07:53:33.913Z,101234.47
2023-05-07T07:56:19.166Z,101234.44
2023-05-07T07:59:04.554Z,101237.03
2023-05-07T08:01:55.469Z,101243.13
2023-05-07T08:04:44.372Z,101236.94
2023-05-07T08:07:31.467Z,101235.22
2023-05-07T08:10:22.209Z,101232.56
2023-05-07T08:13:11.764Z,101234.34
2023-05-07T08:15:59.139Z,101231.72
2023-05-07T08:18:45.018Z,101229.09
2023-05-07T08:21:33.766Z,101231.66
2023-05-07T08:24:21.153Z,101229.00
2023-05-07T08:27:06.907Z,101229.81
2023-05-07T08:29:52.642Z,101230.69
2023-05-07T08:32:39.512Z,101221.91
2023-05-07T08:35:25.067Z,101216.69
2023-05-07T08:38:10.616Z,101222.81
2023-05-07T08:40:56.777Z,101228.03
2023-05-07T08:43:43.044Z,101229.78
2023-05-07T08:46:32.823Z,101234.16
2023-05-07T08:49:18.836Z,101232.41
2023-05-07T08:52:04.808Z,101233.28
2023-05-07T08:54:50.379Z,101236.72
2023-05-07T08:57:37.092Z,101240.19
2023-05-07T09:00:23.800Z,101248.03
2023-05-07T09:03:13.809Z,101249.66
2023-05-07T09:06:02.078Z,101246.00
2023-05-07T09:08:53.161Z,101247.75
2023-05-07T09:11:39.853Z,101250.34
2023-05-07T09:14:25.605Z,101254.69
2023-05-07T09:17:11.441Z,101257.19
2023-05-07T09:19:57.318Z,101253.56
2023-05-07T09:22:43.751Z,101249.06
2023-05-07T09:25:33.364Z,101247.78
2023-05-07T09:28:24.155Z,101244.88
2023-05-07T09:31:11.015Z,101252.63
2023-05-07T09:33:57.272Z,101250.78
2023-05-07T09:36:47.825Z,101241.13
2023-05-07T09:39:45.190Z,101247.03
2023-05-07T09:42:32.343Z,101245.00
2023-05-07T09:45:29.510Z,101245.88
2023-05-07T09:48:19.551Z,101240.78
2023-05-07T09:51:17.904Z,101241.00
2023-05-07T09:54:04.970Z,101241.22
2023-05-07T09:56:54.137Z,101243.97
2023-05-07T09:59:44.876Z,101248.38
2023-05-07T10:02:36.326Z,101242.25
2023-05-07T10:05:23.669Z,101249.16
2023-05-07T10:08:12.242Z,101243.81
2023-05-07T10:11:00.995Z,101232.38
2023-05-07T10:13:49.199Z,101226.28
2023-05-07T10:16:37.601Z,101220.16
2023-05-07T10:19:27.636Z,101221.94
2023-05-07T10:22:17.788Z,101221.97
2023-05-07T10:25:10.348Z,101219.34
2023-05-07T10:28:00.827Z,101220.25
2023-05-07T10:31:11.016Z,101221.19
2023-05-07T10:34:03.948Z,101219.41
2023-05-07T10:36:51.433Z,101230.00
2023-05-07T10:39:38.392Z,101235.34
2023-05-07T10:42:24.401Z,101232.78
2023-05-07T10:45:15.237Z,101238.13
2023-05-07T10:48:28.066Z,101233.84
2023-05-07T10:51:22.006Z,101233.06
2023-05-07T10:54:12.519Z,101238.28
2023-05-07T10:57:33.242Z,101224.19
2023-05-07T11:00:38.955Z,101231.22
2023-05-07T11:03:29.626Z,101217.09
2023-05-07T11:06:19.858Z,101219.63
2023-05-07T11:09:10.493Z,101211.47
2023-05-07T11:12:04.544Z,101221.41
2023-05-07T11:15:02.557Z,101226.03
2023-05-07T11:17:58.560Z,101231.06
2023-05-07T11:20:55.741Z,101238.81
2023-05-07T11:24:11.837Z,101231.34
2023-05-07T11:27:11.894Z,101228.34
2023-05-07T11:29:57.575Z,101214.13
2023-05-07T11:32:43.841Z,101219.50
2023-05-07T11:35:30.547Z,101227.97
2023-05-07T11:38:17.002Z,101222.06
2023-05-07T11:41:05.847Z,101227.59
2023-05-07T11:43:58.309Z,101218.25
2023-05-07T11:46:47.030Z,101231.13
2023-05-07T11:49:32.545Z,101236.84
2023-05-07T11:52:19.471Z,101232.09
2023-05-07T11:55:05.839Z,101231.69
2023-05-07T11:57:51.713Z,101231.41
2023-05-07T12:00:37.031Z,101226.19
2023-05-07T12:03:22.451Z,101233.38
2023-05-07T12:06:08.383Z,101230.28
2023-05-07T12:08:54.484Z,101230.91
2023-05-07T12:11:40.962Z,101234.38
2023-05-07T12:14:30.190Z,101237.00
2023-05-07T12:17:16.295Z,101229.50
2023-05-07T12:20:01.670Z,101223.34
2023-05-07T12:22:48.918Z,101214.41
2023-05-07T12:25:41.004Z,101217.78
2023-05-07T12:28:26.628Z,101211.78
2023-05-07T12:31:12.005Z,101215.25
2023-05-07T12:33:57.529Z,101213.66
2023-05-07T12:36:43.361Z,101208.78
2023-05-07T12:39:29.185Z,101207.63
2023-05-07T12:42:20.893Z,101203.91
2023-05-07T12:45:14.621Z,101206.09
2023-05-07T12:48:03.968Z,101206.47
2023-05-07T12:50:54.321Z,101187.53
2023-05-07T12:53:43.937Z,101190.06
2023-05-07T12:56:32.475Z,101185.63
2023-05-07T12:59:17.836Z,101183.53
2023-05-07T13:02:03.499Z,101178.59
2023-05-07T13:04:49.283Z,101187.59
2023-05-07T13:07:35.429Z,101185.00
2023-05-07T13:10:20.843Z,101194.59
2023-05-07T13:13:06.285Z,101197.22
2023-05-07T13:15:51.630Z,101184.34
2023-05-07T13:18:38.459Z,101193.94
2023-05-07T13:21:24.130Z,101201.03
2023-05-07T13:24:09.482Z,101198.06
2023-05-07T13:26:54.802Z,101196.81
2023-05-07T13:29:40.389Z,101202.91
2023-05-07T13:32:25.725Z,101200.97
2023-05-07T13:35:11.349Z,101202.81
2023-05-07T13:37:56.921Z,101212.09
2023-05-07T13:40:42.398Z,101211.16
2023-05-07T13:43:27.832Z,101212.63
2023-05-07T13:46:13.171Z,101215.28
2023-05-07T13:48:58.636Z,101213.94
2023-05-07T13:51:43.872Z,101218.94
2023-05-07T13:54:29.307Z,101214.25
2023-05-07T13:57:14.741Z,101214.78
2023-05-07T14:00:00.265Z,101206.16
2023-05-07T14:02:45.801Z,101209.50
2023-05-07T14:05:31.396Z,101202.94
2023-05-07T14:08:19.678Z,101215.94
2023-05-07T14:11:05.276Z,101208.06
2023-05-07T14:13:50.852Z,101198.16
2023-05-07T14:16:36.366Z,101198.44
2023-05-07T14:19:24.711Z,101207.41
2023-05-07T14:22:10.170Z,101188.53
2023-05-07T14:25:05.912Z,101193.50
2023-05-07T14:27:52.490Z,101194.63
2023-05-07T14:30:37.881Z,101190.69
2023-05-07T14:33:23.338Z,101187.97
2023-05-07T14:36:08.660Z,101183.41
2023-05-07T14:39:00.120Z,101174.28
2023-05-07T14:41:45.307Z,101182.63
2023-05-07T14:44:31.688Z,101173.44
2023-05-07T14:47:19.656Z,101168.50
2023-05-07T14:50:05.686Z,101172.44
2023-05-07T14:52:51.180Z,101172.72
2023-05-07T14:55:36.961Z,101170.91
2023-05-07T14:58:22.303Z,101161.97
2023-05-07T15:01:07.911Z,101173.38
2023-05-07T15:03:53.316Z,101161.97
2023-05-07T15:09:24.304Z,101166.59
2023-05-07T15:12:09.724Z,101162.09
2023-05-07T15:14:55.356Z,101172.38
2023-05-07T15:17:40.882Z,101177.63
2023-05-07T15:20:26.826Z,101169.53
2023-05-07T15:23:15.365Z,101179.78
2023-05-07T15:26:04.889Z,101175.22
2023-05-07T15:28:50.212Z,101175.78
2023-05-07T15:31:35.720Z,101182.38
2023-05-07T15:34:22.049Z,101176.81
2023-05-07T15:37:07.527Z,101178.19
2023-05-07T15:39:52.862Z,101178.72
2023-05-07T15:42:38.212Z,101178.28
2023-05-07T15:45:24.793Z,101173.63
2023-05-07T15:48:11.714Z,101186.28
2023-05-07T15:50:57.255Z,101192.03
2023-05-07T15:53:42.521Z,101197.31
2023-05-07T15:56:27.849Z,101194.44
2023-05-07T15:59:13.596Z,101195.63
2023-05-07T16:01:59.148Z,101193.53
2023-05-07T16:04:44.589Z,101190.13
2023-05-07T16:07:30.166Z,101185.69
2023-05-07T16:10:15.831Z,101183.75
2023-05-07T16:13:03.047Z,101185.31
2023-05-07T16:15:48.463Z,101181.63
2023-05-07T16:18:34.100Z,101189.47
2023-05-07T16:21:19.524Z,101185.22
2023-05-07T16:24:05.168Z,101188.22
2023-05-07T16:26:50.907Z,101183.41
2023-05-07T16:29:36.455Z,101172.97
2023-05-07T16:32:21.870Z,101171.22
2023-05-07T16:35:07.997Z,101169.22
2023-05-07T16:37:53.432Z,101177.53
2023-05-07T16:40:39.965Z,101181.41
2023-05-07T16:43:26.115Z,101174.56
2023-05-07T16:46:11.427Z,101176.41
2023-05-07T16:48:56.901Z,101176.34
2023-05-07T16:51:43.380Z,101172.94
2023-05-07T16:54:29.002Z,101168.66
2023-05-07T16:57:14.389Z,101169.69
2023-05-07T17:00:00.454Z,101172.44
2023-05-07T17:02:47.011Z,101161.28
2023-05-07T17:05:33.004Z,101159.81
2023-05-07T17:08:18.316Z,101154.13
2023-05-07T17:11:03.834Z,101157.78
2023-05-07T17:13:49.141Z,101159.56
2023-05-07T17:16:34.519Z,101153.53
2023-05-07T17:19:20.504Z,101163.25
2023-05-07T17:22:06.035Z,101157.22
2023-05-07T17:24:51.519Z,101154.56
2023-05-07T17:27:37.115Z,101144.00
2023-05-07T17:30:22.536Z,101147.59
2023-05-07T17:33:20.099Z,101148.53
2023-05-07T17:36:08.686Z,101150.44
2023-05-07T17:38:54.419Z,101149.69
2023-05-07T17:41:39.688Z,101144.53
2023-05-07T17:44:25.111Z,101143.88
2023-05-07T17:47:10.604Z,101137.13
2023-05-07T17:49:56.167Z,101132.19
2023-05-07T17:52:41.792Z,101141.34
2023-05-07T17:55:28.423Z,101144.31
2023-05-07T17:58:13.819Z,101144.47
2023-05-07T18:00:59.148Z,101141.13
2023-05-07T18:03:44.614Z,101140.34
2023-05-07T18:06:30.451Z,101136.94
2023-05-07T18:09:15.945Z,101123.84
2023-05-07T18:12:02.123Z,101133.56
2023-05-07T18:14:47.880Z,101134.41
2023-05-07T18:17:33.512Z,101138.78
2023-05-07T18:20:19.010Z,101142.22
2023-05-07T18:23:04.890Z,101129.88
2023-05-07T18:25:50.354Z,101124.56
2023-05-07T18:28:35.974Z,101114.00
2023-05-07T18:31:21.616Z,101114.09
2023-05-07T18:34:07.379Z,101113.38
2023-05-07T18:36:52.801Z,101112.66
2023-05-07T18:39:38.892Z,101117.19
2023-05-07T18:42:24.370Z,101129.53
2023-05-07T18:45:10.129Z,101117.34
2023-05-07T18:47:55.521Z,101126.16
2023-05-07T18:50:44.169Z,101131.50
2023-05-07T18:53:29.677Z,101126.28
2023-05-07T18:56:14.982Z,101129.88
2023-05-07T18:59:00.314Z,101126.50
2023-05-07T19:01:46.291Z,101119.56
2023-05-07T19:04:31.883Z,101131.00
2023-05-07T19:07:17.382Z,101133.75
2023-05-07T19:10:05.984Z,101135.69
2023-05-07T19:12:55.456Z,101137.59
2023-05-07T19:15:41.920Z,101132.50
2023-05-07T19:18:27.388Z,101132.63
2023-05-07T19:21:12.829Z,101138.03
2023-05-07T19:23:58.179Z,101137.28
2023-05-07T19:26:43.677Z,101128.63
2023-05-07T19:29:29.015Z,101140.97
2023-05-07T19:32:14.564Z,101138.47
2023-05-07T19:35:00.203Z,101133.28
2023-05-07T19:37:45.785Z,101142.13
2023-05-07T19:40:31.306Z,101133.38
2023-05-07T19:43:16.601Z,101133.44
2023-05-07T19:46:02.699Z,101133.47
2023-05-07T19:48:47.963Z,101128.25
2023-05-07T19:51:33.436Z,101143.13
2023-05-07T19:54:19.145Z,101146.66
2023-05-07T19:57:04.664Z,101144.84
2023-05-07T19:59:50.424Z,101139.56
2023-05-07T20:02:35.795Z,101143.97
2023-05-07T20:05:21.353Z,101149.22
2023-05-07T20:08:07.947Z,101144.84
2023-05-07T20:10:53.986Z,101159.72
2023-05-07T20:13:39.345Z,101144.03
2023-05-07T20:16:24.507Z,101137.88
2023-05-07T20:19:09.860Z,101139.66
2023-05-07T20:21:55.346Z,101131.81
2023-05-07T20:24:40.683Z,101140.56
2023-05-07T20:27:26.073Z,101148.47
2023-05-07T20:30:13.119Z,101154.56
2023-05-07T20:32:59.079Z,101146.72
2023-05-07T20:35:45.174Z,101135.34
2023-05-07T20:38:33.913Z,101131.84
2023-05-07T20:41:21.077Z,101129.25
2023-05-07T20:44:06.730Z,101125.81
2023-05-07T20:46:52.503Z,101131.13
2023-05-07T20:49:37.865Z,101130.25
2023-05-07T20:52:23.736Z,101134.69
2023-05-07T20:55:09.187Z,101130.34
2023-05-07T20:57:54.989Z,101129.50
2023-05-07T21:00:40.602Z,101140.00
2023-05-07T21:03:26.167Z,101140.00
2023-05-07T21:06:11.890Z,101137.34
2023-05-07T21:08:57.529Z,101145.22
2023-05-07T21:11:42.971Z,101140.00
2023-05-07T21:14:28.232Z,101146.22
2023-05-07T21:17:13.660Z,101149.81
2023-05-07T21:19:59.213Z,101148.13
2023-05-07T21:22:44.740Z,101156.97
2023-05-07T21:25:30.301Z,101161.47
2023-05-07T21:28:15.825Z,101160.72
2023-05-07T21:31:01.554Z,101159.94
2023-05-07T21:33:46.958Z,101163.53
2023-05-07T21:36:32.222Z,101164.44
2023-05-07T21:39:17.568Z,101155.72
2023-05-07T21:42:03.508Z,101169.75
2023-05-07T21:44:48.983Z,101162.78
2023-05-07T21:47:34.495Z,101170.66
2023-05-07T21:50:19.762Z,101169.81
2023-05-07T21:53:05.543Z,101164.56
2023-05-07T21:55:51.931Z,101160.25
2023-05-07T21:58:37.252Z,101168.13
2023-05-07T22:01:22.784Z,101162.00
2023-05-07T22:04:08.217Z,101158.50
2023-05-07T22:06:54.356Z,101155.00
2023-05-07T22:09:40.006Z,101152.38
2023-05-07T22:12:25.467Z,101139.28
2023-05-07T22:15:11.401Z,101143.69
2023-05-07T22:17:56.757Z,101138.47
2023-05-07T22:20:42.208Z,101130.66
2023-05-07T22:23:27.889Z,101132.41
2023-05-07T22:26:14.424Z,101134.16
2023-05-07T22:29:00.159Z,101123.72
2023-05-07T22:31:45.676Z,101128.94
2023-05-07T22:34:31.130Z,101125.44
2023-05-07T22:37:16.376Z,101130.69
2023-05-07T22:40:02.184Z,101118.47
2023-05-07T22:42:47.719Z,101118.44
2023-05-07T22:45:33.006Z,101122.84
2023-05-07T22:48:18.360Z,101116.72
2023-05-07T22:51:04.130Z,101123.72
2023-05-07T22:53:49.625Z,101125.47
2023-05-07T22:56:35.107Z,101133.31
2023-05-07T22:59:20.733Z,101139.47
2023-05-07T23:02:06.137Z,101142.97
2023-05-07T23:04:51.687Z,101135.09
2023-05-07T23:07:37.381Z,101133.38
2023-05-07T23:10:23.095Z,101136.00
2023-05-07T23:13:15.242Z,101127.25
2023-05-07T23:16:00.588Z,101128.16
2023-05-07T23:18:46.018Z,101118.56
2023-05-07T23:21:31.341Z,101129.88
2023-05-07T23:24:16.684Z,101119.44
2023-05-07T23:27:08.435Z,101122.06
2023-05-07T23:29:53.742Z,101117.69
2023-05-07T23:32:39.108Z,101115.97
2023-05-07T23:35:24.556Z,101117.69
2023-05-07T23:38:10.000Z,101115.06
2023-05-07T23:40:55.828Z,101115.03
2023-05-07T23:43:41.233Z,101115.94
2023-05-07T23:46:26.972Z,101117.69
2023-05-07T23:49:12.490Z,101120.28
2023-05-07T23:51:58.073Z,101119.41
2023-05-07T23:54:43.538Z,101112.41
2023-05-07T23:57:29.082Z,101111.53
